This is the latest recevied weather packets stored in our database for station/object OK5TVR-5. If no packets are shown the sender has not sent any weather packets the latest 1 day(s).
| Time | Temp. | Humidity | Pressure | Rain* | Wind** | Luminosity | Snow |
|---|---|---|---|---|---|---|---|
| 1777974379 | 25° C | 39% | - | 0 mm | 1.34 m/s, 222° | - | - |
| 1777974378 | 25° C | 39% | - | 0 mm | 1.34 m/s, 222° | - | - |
| 1777973476 | 26.11° C | 38% | - | 0 mm | 0.45 m/s, 135° | - | - |
| 1777972573 | 25.56° C | 41% | - | 0 mm | 0.89 m/s, 270° | - | - |
| 1777971673 | - | - | - | - | 1.79 m/s, 270° | - | - |
| 1777971671 | 25° C | 43% | - | 0 mm | 1.79 m/s, 270° | - | - |
| 1777970770 | 26.11° C | 40% | - | 0 mm | 0.45 m/s, 90° | - | - |
| 1777969868 | 23.89° C | 47% | - | 0 mm | 0.89 m/s, 222° | - | - |
| 1777968068 | 24.44° C | 45% | - | 0 mm | 0.45 m/s, 135° | - | - |
| 1777967167 | 22.78° C | 50% | - | 0 mm | 0.45 m/s, 180° | - | - |
| 1777967165 | - | - | - | - | 0.45 m/s, 180° | - | - |
| 1777966265 | 23.33° C | 51% | - | 0 mm | 1.34 m/s, 315° | - | - |
| 1777965364 | 22.78° C | 51% | - | 0 mm | 1.79 m/s, 135° | - | - |
| 1777964464 | - | - | - | - | 1.34 m/s, 90° | - | - |
| 1777964464 | 22.22° C | 53% | - | 0 mm | 1.34 m/s, 90° | - | - |
| 1777963561 | 21.11° C | 57% | - | 0 mm | 1.79 m/s, 315° | - | - |
| 1777962661 | 20° C | 59% | 1000.9 hPa | 0 mm | 1.79 m/s, 0° | - | - |
| 1777961759 | 18.89° C | 62% | 1001.1 hPa | 0 mm | 1.79 m/s, 0° | - | - |
| 1777959956 | 15° C | 78% | 1001.5 hPa | 0 mm | 0 m/s | - | - |
| 1777959053 | 15° C | 78% | 1001.5 hPa | 0 mm | 0 m/s | - | - |
| 1777958153 | 13.89° C | 82% | 1001.7 hPa | 0 mm | 0 m/s | - | - |
| 1777957252 | 13.33° C | 84% | 1001.8 hPa | 0 mm | 0.45 m/s, 180° | - | - |
| 1777956350 | 13.89° C | 84% | 1001.7 hPa | 0 mm | 0.45 m/s, 90° | - | - |
| 1777956350 | 13.89° C | 84% | 1001.7 hPa | 0 mm | 0.45 m/s, 90° | - | - |
| 1777955450 | 13.33° C | 81% | 1001.7 hPa | 0 mm | 0 m/s | - | - |
* Rain latest hour (hover to see other rain measurements)
** Current wind speed in m/s (hover to see current wind gust speed)